| time (UTC) | temp F | wind direction | speed knots | gust knots | rain 1hr in | rain 24hr in | rain mn in | humidity % | barometer mb |
| 20260906230040 | 70 | 175 | 1.7 | 10.4 | 0.00 | 0.00 | 0.00 | 30 | 1005.7 |
| 20260906224538 | 71 | 188 | 1.7 | 12.2 | 0.00 | 0.00 | 0.00 | 31 | 1005.5 |
| 20260906223022 | 72 | 153 | 0.9 | 12.2 | 0.00 | 0.00 | 0.00 | 30 | 1005.2 |
| 20260906221520 | 73 | 159 | 0.9 | 6.1 | 0.00 | 0.00 | 0.00 | 30 | 1005.2 |
| 20260906220004 | 74 | 155 | 0.0 | 4.3 | 0.00 | 0.00 | 0.00 | 29 | 1005.1 |
| 20260906214504 | 74 | 161 | 0.0 | 4.3 | 0.00 | 0.00 | 0.00 | 28 | 1005.1 |
| 20260906213042 | 75 | 183 | 0.0 | 1.7 | 0.00 | 0.00 | 0.00 | 28 | 1005.0 |
| 20260906211541 | 76 | 185 | 2.6 | 13.9 | 0.00 | 0.00 | 0.00 | 24 | 1005.2 |
| 20260906210023 | 76 | 197 | 2.6 | 15.6 | 0.00 | 0.00 | 0.00 | 25 | 1005.1 |
| 20260906204521 | 77 | 204 | 1.7 | 8.7 | 0.00 | 0.00 | 0.00 | 23 | 1005.2 |
| 20260906203006 | 78 | 175 | 0.0 | 10.4 | 0.00 | 0.00 | 0.00 | 26 | 1005.3 |
| 20260906201501 | 79 | 186 | 0.0 | 8.7 | 0.00 | 0.00 | 0.00 | 24 | 1005.4 |
| 20260906200044 | 78 | 191 | 0.0 | 7.8 | 0.00 | 0.00 | 0.00 | 23 | 1005.5 |
| 20260906194540 | 78 | 192 | 0.0 | 5.2 | 0.00 | 0.00 | 0.00 | 24 | 1005.7 |
| 20260906193021 | 79 | 217 | 0.0 | 7.8 | 0.00 | 0.00 | 0.00 | 23 | 1005.7 |
| 20260906191519 | 78 | 228 | 0.9 | 13.0 | 0.00 | 0.00 | 0.00 | 23 | 1005.8 |
| 20260906190111 | 78 | 223 | 2.6 | 9.6 | 0.00 | 0.00 | 0.00 | 23 | 1006.0 |
| 20260906184559 | 77 | 234 | 0.0 | 7.8 | 0.00 | 0.00 | 0.00 | 26 | 1006.3 |
| 20260906183036 | 76 | 210 | 0.0 | 1.7 | 0.00 | 0.00 | 0.00 | 28 | 1006.3 |
| 20260906181536 | 76 | 195 | 0.0 | 11.3 | 0.00 | 0.00 | 0.00 | 26 | 1006.7 |
| 20260906180014 | 76 | 213 | 1.7 | 10.4 | 0.00 | 0.00 | 0.00 | 27 | 1007.0 |
| 20260906174511 | 75 | 194 | 5.2 | 21.7 | 0.00 | 0.00 | 0.00 | 26 | 1007.6 |
| 20260906173049 | 73 | 198 | 1.7 | 8.7 | 0.00 | 0.00 | 0.00 | 31 | 1008.0 |
| 20260906171545 | 71 | 54 | 0.0 | 1.7 | 0.00 | 0.00 | 0.00 | 34 | 1008.2 |
| 20260906170053 | 70 | 56 | 0.0 | 0.9 | 0.00 | 0.00 | 0.00 | 32 | 1008.3 |
| 20260906164521 | 68 | 49 | 0.0 | 0.0 | 0.00 | 0.00 | 0.00 | 34 | 1008.4 |
| 20260906163001 | 68 | 61 | 0.0 | 0.9 | 0.00 | 0.00 | 0.00 | 35 | 1008.5 |
| 20260906161558 | 67 | 62 | 0.0 | 0.0 | 0.00 | 0.00 | 0.00 | 35 | 1008.8 |
| 20260906160037 | 66 | 61 | 0.0 | 0.9 | 0.00 | 0.00 | 0.00 | 36 | 1008.9 |
| 20260906154535 | 66 | 82 | 0.0 | 0.9 | 0.00 | 0.00 | 0.00 | 38 | 1008.9 |
| 20260906153024 | 65 | 216 | 0.0 | 0.0 | 0.00 | 0.00 | 0.00 | 36 | 1008.9 |
| 20260906151523 | 64 | 216 | 0.0 | 0.0 | 0.00 | 0.00 | 0.00 | 37 | 1009.2 |
| 20260906150022 | 62 | 216 | 0.0 | 0.0 | 0.00 | 0.00 | 0.00 | 43 | 1009.2 |
| 20260906144532 | 61 | 216 | 0.0 | 0.0 | 0.00 | 0.00 | 0.00 | 47 | 1009.3 |
| 20260906143020 | 56 | 216 | 0.0 | 0.9 | 0.00 | 0.00 | 0.00 | 53 | 1009.3 |
| 20260906141520 | 52 | 216 | 0.0 | 0.0 | 0.00 | 0.00 | 0.00 | 63 | 1009.3 |
| 20260906140019 | 50 | 216 | 0.0 | 0.0 | 0.00 | 0.00 | 0.00 | 63 | 1009.3 |
| 20260906134526 | 49 | 216 | 0.0 | 0.0 | 0.00 | 0.00 | 0.00 | 63 | 1009.3 |
| 20260906133105 | 48 | 216 | 0.0 | 0.9 | 0.00 | 0.00 | 0.00 | 63 | 1009.3 |
| 20260906131600 | 45 | 227 | 0.0 | 6.1 | 0.00 | 0.00 | 0.00 | 67 | 1009.1 |
| 20260906130039 | 45 | 188 | 0.0 | 0.0 | 0.00 | 0.00 | 0.00 | 66 | 1009.0 |
| 20260906124544 | 45 | 188 | 0.0 | 0.0 | 0.00 | 0.00 | 0.00 | 66 | 1008.8 |
| 20260906123031 | 45 | 188 | 0.0 | 0.9 | 0.00 | 0.00 | 0.00 | 65 | 1008.8 |
| 20260906121519 | 45 | 189 | 0.0 | 2.6 | 0.00 | 0.00 | 0.00 | 64 | 1008.7 |
| 20260906114609 | 46 | 174 | 0.0 | 0.9 | 0.00 | 0.00 | 0.00 | 62 | 1008.8 |
| 20260906113042 | 47 | 174 | 0.0 | 0.0 | 0.00 | 0.00 | 0.00 | 60 | 1008.9 |
| 20260906111540 | 47 | 174 | 0.0 | 0.9 | 0.00 | 0.00 | 0.00 | 59 | 1008.8 |
| 20260906110020 | 48 | 174 | 0.0 | 0.0 | 0.00 | 0.00 | 0.00 | 59 | 1008.7 |
| 20260906104519 | 47 | 174 | 0.0 | 0.0 | 0.00 | 0.00 | 0.00 | 60 | 1008.4 |
| 20260906103002 | 47 | 174 | 0.0 | 0.0 | 0.00 | 0.00 | 0.00 | 60 | 1008.6 |
| 20260906101502 | 46 | 174 | 0.0 | 0.0 | 0.00 | 0.00 | 0.00 | 62 | 1008.6 |
| 20260906100043 | 45 | 174 | 0.0 | 0.9 | 0.00 | 0.00 | 0.00 | 63 | 1008.5 |
| 20260906094541 | 45 | 174 | 0.0 | 0.0 | 0.00 | 0.00 | 0.00 | 62 | 1008.6 |
| 20260906093023 | 46 | 174 | 0.0 | 0.0 | 0.00 | 0.00 | 0.00 | 61 | 1008.3 |
| 20260906091520 | 47 | 174 | 0.0 | 0.9 | 0.00 | 0.00 | 0.00 | 59 | 1008.2 |
| 20260906090006 | 46 | 174 | 0.0 | 1.7 | 0.00 | 0.00 | 0.00 | 61 | 1008.1 |
| 20260906084502 | 46 | 173 | 0.0 | 0.9 | 0.00 | 0.00 | 0.00 | 60 | 1008.1 |
| 20260906083043 | 46 | 173 | 0.0 | 2.6 | 0.00 | 0.00 | 0.00 | 60 | 1008.1 |
| 20260906081543 | 47 | 173 | 0.0 | 0.9 | 0.00 | 0.00 | 0.00 | 57 | 1008.1 |
| 20260906080028 | 48 | 173 | 0.0 | 1.7 | 0.00 | 0.00 | 0.00 | 56 | 1008.1 |
| 20260906074516 | 49 | 173 | 0.0 | 0.9 | 0.00 | 0.00 | 0.00 | 54 | 1008.1 |
| 20260906073006 | 51 | 173 | 0.0 | 0.0 | 0.00 | 0.00 | 0.00 | 50 | 1008.0 |
| 20260906071502 | 50 | 173 | 0.0 | 0.0 | 0.00 | 0.00 | 0.00 | 50 | 1007.9 |
| 20260906070001 | 51 | 171 | 0.0 | 0.0 | 0.00 | 0.00 | 0.00 | 50 | 1007.7 |
| 20260906064501 | 50 | 171 | 0.0 | 0.9 | 0.00 | 0.00 | 0.00 | 49 | 1007.7 |
| 20260906063102 | 50 | 171 | 0.0 | 3.5 | 0.00 | 0.00 | 0.00 | 51 | 1007.7 |
| 20260906061558 | 51 | 171 | 0.0 | 0.9 | 0.00 | 0.00 | 0.00 | 49 | 1007.7 |
| 20260906060053 | 52 | 171 | 0.0 | 0.0 | 0.00 | 0.00 | 0.00 | 48 | 1007.5 |
| 20260906054550 | 54 | 171 | 0.0 | 3.5 | 0.00 | 0.00 | 0.00 | 46 | 1007.4 |
| 20260906053031 | 55 | 169 | 0.0 | 0.9 | 0.00 | 0.00 | 0.00 | 44 | 1007.3 |
| 20260906051531 | 55 | 169 | 0.0 | 2.6 | 0.00 | 0.00 | 0.00 | 44 | 1007.4 |
| 20260906050014 | 55 | 169 | 0.0 | 0.0 | 0.00 | 0.00 | 0.00 | 46 | 1007.4 |
| 20260906044513 | 54 | 169 | 0.0 | 0.0 | 0.00 | 0.00 | 0.00 | 48 | 1007.4 |
| 20260906043100 | 53 | 176 | 0.0 | 0.9 | 0.00 | 0.00 | 0.00 | 49 | 1007.4 |
| 20260906041556 | 55 | 176 | 0.0 | 0.0 | 0.00 | 0.00 | 0.00 | 48 | 1007.3 |
| 20260906040029 | 57 | 176 | 0.0 | 0.0 | 0.00 | 0.00 | 0.00 | 44 | 1007.2 |
| 20260906034525 | 59 | 175 | 0.0 | 1.7 | 0.00 | 0.00 | 0.00 | 41 | 1007.2 |
| 20260906033007 | 62 | 175 | 0.0 | 4.3 | 0.00 | 0.00 | 0.00 | 36 | 1007.2 |
| 20260906031559 | 65 | 171 | 0.0 | 6.1 | 0.00 | 0.00 | 0.00 | 33 | 1007.0 |
| 20260906030044 | 67 | 164 | 0.9 | 4.3 | 0.00 | 0.00 | 0.00 | 30 | 1006.8 |
| 20260906024545 | 67 | 161 | 0.0 | 5.2 | 0.00 | 0.00 | 0.00 | 30 | 1006.6 |
| 20260906023024 | 68 | 160 | 0.0 | 5.2 | 0.00 | 0.00 | 0.00 | 30 | 1006.4 |
| 20260906021522 | 68 | 160 | 0.0 | 4.3 | 0.00 | 0.00 | 0.00 | 30 | 1006.3 |
| 20260906020008 | 69 | 161 | 0.0 | 5.2 | 0.00 | 0.00 | 0.00 | 29 | 1006.2 |
| 20260906014506 | 69 | 151 | 0.0 | 5.2 | 0.00 | 0.00 | 0.00 | 29 | 1006.0 |
| 20260906013111 | 70 | 184 | 0.0 | 2.6 | 0.00 | 0.00 | 0.00 | 30 | 1006.0 |
| 20260906011559 | 72 | 173 | 0.0 | 5.2 | 0.00 | 0.00 | 0.00 | 29 | 1006.1 |
| 20260906010045 | 75 | 183 | 0.0 | 7.0 | 0.00 | 0.00 | 0.00 | 27 | 1006.1 |
| 20260906004526 | 77 | 202 | 1.7 | 7.0 | 0.00 | 0.00 | 0.00 | 24 | 1006.0 |
| 20260906003026 | 77 | 169 | 0.0 | 8.7 | 0.00 | 0.00 | 0.00 | 23 | 1005.9 |
| 20260906001514 | 78 | 174 | 0.0 | 9.6 | 0.00 | 0.00 | 0.00 | 23 | 1005.8 |
| 20260906000013 | 79 | 190 | 2.6 | 9.6 | 0.00 | 0.00 | 0.00 | 22 | 1005.8 |
| 20260905234548 | 79 | 155 | 0.0 | 13.0 | 0.00 | 0.00 | 0.00 | 22 | 1005.6 |
| 20260905233046 | 81 | 164 | 0.9 | 8.7 | 0.00 | 0.00 | 0.00 | 22 | 1005.6 |
| 20260905231535 | 81 | 214 | 0.0 | 4.3 | 0.00 | 0.00 | 0.00 | 21 | 1005.4 |